Progress Software Debt to Equity Ratio 2006-2019 | PRGS

Current and historical debt to equity ratio values for Progress Software (PRGS) over the last 10 years. The debt/equity ratio can be defined as a measure of a company's financial leverage calculated by dividing its long-term debt by stockholders' equity. Progress Software debt/equity for the three months ending August 31, 2019 was 0.86.
Progress Software Debt/Equity Ratio Historical Data
Date Long Term Debt Shareholder's Equity Debt to Equity Ratio
2019-08-31 $0.29B $0.33B 0.86
2019-05-31 $0.29B $0.32B 0.92
2019-02-28 $0.11B $0.31B 0.35
2018-11-30 $0.11B $0.32B 0.34
2018-08-31 $0.11B $0.31B 0.37
2018-05-31 $0.11B $0.31B 0.37
2018-02-28 $0.12B $0.35B 0.33
2017-11-30 $0.12B $0.38B 0.31
2017-08-31 $0.11B $0.39B 0.28
2017-05-31 $0.11B $0.39B 0.29
2017-02-28 $0.12B $0.39B 0.30
2016-11-30 $0.12B $0.41B 0.30
2016-08-31 $0.12B $0.50B 0.25
2016-05-31 $0.13B $0.49B 0.26
2016-02-29 $0.13B $0.52B 0.25
2015-11-30 $0.14B $0.52B 0.26
2015-08-31 $0.14B $0.53B 0.26
2015-05-31 $0.14B $0.52B 0.27
2015-02-28 $0.14B $0.54B 0.26
2014-11-30 $0.00B $0.54B 0.00
2014-08-31 $0.00B $0.52B 0.00
2014-05-31 $0.00B $0.52B 0.00
2014-02-28 $0.00B $0.53B 0.00
2013-11-30 $0.00B $0.51B 0.00
2013-08-31 $0.00B $0.52B 0.00
2013-05-31 $0.00B $0.54B 0.00
2013-02-28 $0.00B $0.60B 0.00
2012-11-30 $0.00B $0.64B 0.00
2012-08-31 $0.00B $0.68B 0.00
2012-05-31 $0.00B $0.66B 0.00
2012-02-29 $0.00B $0.65B 0.00
2011-11-30 $0.00B $0.63B 0.00
2011-08-31 $0.00B $0.67B 0.00
2011-05-31 $0.00B $0.72B 0.00
2011-02-28 $0.00B $0.72B 0.00
2010-11-30 $0.00B $0.69B 0.00
2010-08-31 $0.00B $0.63B 0.00
2010-05-31 $0.00B $0.63B 0.00
2010-02-28 $0.00B $0.57B 0.00
2009-11-30 $0.00B $0.56B 0.00
2009-08-31 $0.00B $0.53B 0.00
2009-05-31 $0.00B $0.51B 0.00
2009-02-28 $0.00B $0.49B 0.00
2008-11-30 $0.00B $0.48B 0.00
2008-08-31 $0.00B $0.48B 0.00
2008-05-31 $0.00B $0.51B 0.00
2008-02-29 $0.00B $0.50B 0.00
2007-11-30 $0.00B $0.52B 0.00
2007-08-31 $0.00B $0.50B 0.00
2007-05-31 $0.00B $0.47B 0.00
2007-02-28 $0.00B $0.44B 0.00
2006-11-30 $0.00B $0.45B 0.00
2006-08-31 $0.00B $0.43B 0.00
2006-05-31 $0.00B $0.41B 0.00
2006-02-28 $0.00B $0.40B 0.01
2005-11-30 $0.00B $0.37B 0.01
2005-08-31 $0.00B $0.36B 0.01
2005-05-31 $0.00B $0.32B 0.01
2005-02-28 $0.00B $0.28B 0.01
Sector Industry Market Cap Revenue
Computer and Technology Computer Software $1.821B $0.397B
Progress offers the leading platform for developing and deploying mission-critical business applications. Progress empowers enterprises and ISVs to build and deliver cognitive-first applications that harness big data to derive business insights and competitive advantage. Progress offers leading technologies for easily building powerful user interfaces across any type of device, a reliable, scalable and secure backend platform to deploy modern applications, leading data connectivity to all sources, and award-winning predictive analytics that brings the power of machine learning to any organization.
Stock Name Country Market Cap PE Ratio
Microsoft (MSFT) United States $1000.000B 29.41
Oracle (ORCL) United States $180.735B 16.68
SAP SE (SAP) Germany $153.497B 30.84
Adobe (ADBE) United States $130.333B 44.14
Salesforce, Inc (CRM) United States $128.191B 100.12
Intuit (INTU) United States $69.317B 48.02
VMware (VMW) United States $62.145B 30.91
Dassault Systemes SA (DASTY) France $39.373B 44.39
Autodesk (ADSK) United States $31.680B 212.16
Synopsys (SNPS) United States $20.564B 33.46
ANSYS (ANSS) United States $18.575B 41.21
Cadence Design Systems (CDNS) United States $18.490B 43.71
Symantec (SYMC) United States $14.511B 17.92
Citrix Systems (CTXS) United States $13.194B 24.52
SS&C Technologies Holdings (SSNC) United States $12.703B 15.08
Open Text (OTEX) Canada $11.034B 38.54
Aspen Technology (AZPN) United States $8.179B 31.65
PTC (PTC) United States $7.423B 62.57
Trend Micro (TMICY) Japan $6.849B 26.93
Konami (KNMCY) Japan $6.349B 20.96
Pegasystems (PEGA) United States $5.903B 0.00
Manhattan Associates (MANH) United States $5.244B 55.46
Nuance Communications (NUAN) United States $4.499B 16.93
Blackbaud (BLKB) United States $4.420B 57.62
ACI Worldwide (ACIW) United States $3.680B 35.83
Descartes Systems Group (DSGX) Canada $3.408B 103.87
Cornerstone OnDemand (CSOD) United States $3.342B 0.00
Verint Systems (VRNT) United States $2.900B 17.10
PROS Holdings (PRO) United States $2.385B 0.00
CommVault Systems (CVLT) United States $2.069B 86.42
Bottomline Technologies (EPAY) United States $1.764B 75.89
MicroStrategy (MSTR) United States $1.472B 653.27
Sapiens (SPNS) Israel $0.993B 31.48
QAD (QADB) United States $0.722B 169.05
Simulations Plus (SLP) United States $0.615B 79.77
American Software (AMSWA) United States $0.509B 58.00
Magic Software Enterprises (MGIC) Israel $0.448B 16.98
Rosetta Stone (RST) United States $0.431B 0.00
Avid Technology (AVID) United States $0.287B 14.87
Smith Micro Software (SMSI) United States $0.232B 39.31
GlobalSCAPE (GSB) United States $0.200B 20.25
OptimizeRx (OPRX) United States $0.199B 281.60
Icad Inc (ICAD) United States $0.143B 0.00
Park City (PCYG) United States $0.107B 29.89
ServiceSource (SREV) United States $0.082B 0.00
NetSol Technologies (NTWK) United States $0.061B 7.08
GSE Systems (GVP) United States $0.032B 12.15
Neonode (NEON) Sweden $0.022B 0.00
BSQUARE (BSQR) United States $0.014B 0.00
CounterPath (CPAH) Canada $0.007B 0.00